createdAt,value
2022-12-15T00:00:25.981Z,100602.41
2022-12-15T00:03:48.863Z,100645.38
2022-12-15T00:07:12.058Z,100634.44
2022-12-15T00:10:34.696Z,100628.13
2022-12-15T00:13:57.525Z,100627.22
2022-12-15T00:17:20.400Z,100634.56
2022-12-15T00:20:43.528Z,100628.75
2022-12-15T00:24:06.379Z,100589.25
2022-12-15T00:27:29.005Z,100614.63
2022-12-15T00:30:53.228Z,100594.59
2022-12-15T00:34:17.553Z,100636.53
2022-12-15T00:37:40.345Z,100628.63
2022-12-15T00:40:44.567Z,100621.38
2022-12-15T00:43:49.212Z,100652.38
2022-12-15T00:46:56.820Z,100630.69
2022-12-15T00:50:20.239Z,100626.31
2022-12-15T00:53:44.347Z,100644.81
2022-12-15T00:57:07.333Z,100635.41
2022-12-15T01:00:30.876Z,100635.03
2022-12-15T01:03:53.671Z,100633.78
2022-12-15T01:07:16.682Z,100615.59
2022-12-15T01:10:39.690Z,100634.53
2022-12-15T01:14:02.725Z,100616.47
2022-12-15T01:17:26.160Z,100614.19
2022-12-15T01:20:33.541Z,100612.16
2022-12-15T01:23:39.266Z,100619.53
2022-12-15T01:26:43.664Z,100600.75
2022-12-15T01:29:48.151Z,100627.13
2022-12-15T01:32:53.280Z,100626.44
2022-12-15T01:35:58.624Z,100627.44
2022-12-15T01:39:02.831Z,100627.19
2022-12-15T01:42:07.263Z,100621.72
2022-12-15T01:45:30.167Z,100629.97
2022-12-15T01:48:48.466Z,100616.56
2022-12-15T01:51:58.967Z,100620.63
2022-12-15T01:55:03.514Z,100630.22
2022-12-15T01:58:11.272Z,100615.88
2022-12-15T02:01:15.983Z,100622.34
2022-12-15T02:04:24.062Z,100604.97
2022-12-15T02:07:28.733Z,100620.94
2022-12-15T02:10:45.167Z,100610.25
2022-12-15T02:14:10.614Z,100616.50
2022-12-15T02:17:50.308Z,100608.31
2022-12-15T02:21:06.913Z,100612.53
2022-12-15T02:24:20.004Z,100624.53
2022-12-15T02:27:42.908Z,100604.53
2022-12-15T02:31:13.474Z,100610.44
2022-12-15T02:34:28.119Z,100616.31
2022-12-15T02:37:36.563Z,100610.13
2022-12-15T02:40:41.571Z,100610.53
2022-12-15T02:43:48.418Z,100581.78
2022-12-15T02:47:28.788Z,100613.28
2022-12-15T02:50:36.042Z,100599.16
2022-12-15T02:53:49.294Z,100597.78
2022-12-15T02:57:26.419Z,100597.59
2022-12-15T03:00:34.698Z,100609.63
2022-12-15T03:03:40.406Z,100591.69
2022-12-15T03:06:45.087Z,100610.03
2022-12-15T03:09:49.710Z,100591.84
2022-12-15T03:12:55.553Z,100604.78
2022-12-15T03:16:02.591Z,100606.88
2022-12-15T03:19:07.187Z,100597.88
2022-12-15T03:22:11.756Z,100599.53
2022-12-15T03:25:16.339Z,100596.63
2022-12-15T03:28:20.812Z,100585.75
2022-12-15T03:31:25.371Z,100571.84
2022-12-15T03:34:29.821Z,100559.88
2022-12-15T03:37:34.396Z,100566.22
2022-12-15T03:40:40.277Z,100580.97
2022-12-15T03:43:44.680Z,100552.28
2022-12-15T03:46:49.201Z,100555.47
2022-12-15T03:49:53.726Z,100559.63
2022-12-15T03:53:00.578Z,100574.41
2022-12-15T03:56:05.425Z,100565.00
2022-12-15T03:59:10.080Z,100556.94
2022-12-15T04:02:14.689Z,100559.56
2022-12-15T04:05:34.179Z,100582.91
2022-12-15T04:08:38.678Z,100586.31
2022-12-15T04:11:43.106Z,100581.97
2022-12-15T04:14:47.657Z,100574.34
2022-12-15T04:17:54.593Z,100588.06
2022-12-15T04:20:59.159Z,100583.13
2022-12-15T04:24:22.282Z,100585.88
2022-12-15T04:27:45.190Z,100588.84
2022-12-15T04:31:16.105Z,100594.34
2022-12-15T04:34:41.820Z,100583.59
2022-12-15T04:38:04.662Z,100598.03
2022-12-15T04:41:27.266Z,100595.97
2022-12-15T04:44:50.607Z,100595.09
2022-12-15T04:48:13.471Z,100601.94
2022-12-15T04:51:36.297Z,100604.03
2022-12-15T04:54:59.212Z,100581.50
2022-12-15T04:58:29.303Z,100604.63
2022-12-15T05:01:53.194Z,100599.81
2022-12-15T05:05:16.093Z,100608.19
2022-12-15T05:08:38.706Z,100607.41
2022-12-15T05:12:01.703Z,100601.84
2022-12-15T05:15:24.975Z,100606.03
2022-12-15T05:18:48.027Z,100612.13
2022-12-15T05:22:10.753Z,100608.81
2022-12-15T05:25:33.847Z,100620.25
2022-12-15T05:28:57.061Z,100606.53
2022-12-15T05:32:01.699Z,100592.44
2022-12-15T05:35:06.935Z,100628.03
2022-12-15T05:38:11.451Z,100624.72
2022-12-15T05:41:15.745Z,100549.41
2022-12-15T05:44:20.841Z,100625.22
2022-12-15T05:47:24.975Z,100656.69
2022-12-15T05:50:29.363Z,100629.00
2022-12-15T05:53:34.053Z,100655.97
2022-12-15T05:56:39.287Z,100627.09
2022-12-15T05:59:43.670Z,100663.75
2022-12-15T06:02:48.218Z,100652.16
2022-12-15T06:05:56.559Z,100649.78
2022-12-15T06:09:01.191Z,100668.97
2022-12-15T06:12:05.779Z,100662.72
2022-12-15T06:15:11.018Z,100665.84
2022-12-15T06:18:15.218Z,100690.38
2022-12-15T06:21:25.410Z,100683.03
2022-12-15T06:24:29.924Z,100695.25
2022-12-15T06:27:37.781Z,100700.78
2022-12-15T06:30:42.811Z,100698.59
2022-12-15T06:33:47.415Z,100694.78
2022-12-15T06:36:51.709Z,100660.75
2022-12-15T06:39:56.266Z,100705.56
2022-12-15T06:43:00.611Z,100695.31
2022-12-15T06:46:05.558Z,100701.53
2022-12-15T06:49:10.647Z,100718.34
2022-12-15T06:52:15.191Z,100712.56
2022-12-15T06:55:19.535Z,100713.31
2022-12-15T06:58:23.817Z,100731.81
2022-12-15T07:01:28.953Z,100711.03
2022-12-15T07:04:34.471Z,100724.22
2022-12-15T07:07:38.978Z,100734.75
2022-12-15T07:10:45.191Z,100732.78
2022-12-15T07:13:54.259Z,100722.72
2022-12-15T07:16:58.531Z,100726.00
2022-12-15T07:20:03.134Z,100718.38
2022-12-15T07:23:10.443Z,100734.78
2022-12-15T07:26:14.979Z,100733.91
2022-12-15T07:29:23.234Z,100748.19
2022-12-15T07:32:28.129Z,100747.97
2022-12-15T07:35:32.739Z,100756.53
2022-12-15T07:38:37.380Z,100727.91
2022-12-15T07:41:41.703Z,100742.22
2022-12-15T07:44:47.319Z,100756.50
2022-12-15T07:47:54.761Z,100744.53
2022-12-15T07:51:08.532Z,100750.25
2022-12-15T07:54:16.440Z,100734.56
2022-12-15T07:57:20.775Z,100754.59
2022-12-15T08:00:25.127Z,100749.88
2022-12-15T08:03:31.135Z,100762.97
2022-12-15T08:06:35.743Z,100750.00
2022-12-15T08:09:40.226Z,100751.19
2022-12-15T08:12:44.843Z,100741.88
2022-12-15T08:15:49.197Z,100684.66
2022-12-15T08:18:53.832Z,100779.31
2022-12-15T08:21:59.441Z,100783.31
2022-12-15T08:25:03.892Z,100772.78
2022-12-15T08:28:08.782Z,100774.56
2022-12-15T08:31:18.981Z,100787.13
2022-12-15T08:34:23.479Z,100780.84
2022-12-15T08:37:27.912Z,100798.13
2022-12-15T08:40:32.584Z,100802.53
2022-12-15T08:43:41.195Z,100770.75
2022-12-15T08:46:50.075Z,100812.88
2022-12-15T08:49:55.494Z,100804.09
2022-12-15T08:53:28.912Z,100813.22
2022-12-15T08:56:27.084Z,100816.50
2022-12-15T08:59:31.612Z,100823.06
2022-12-15T09:02:36.315Z,100811.66
2022-12-15T09:05:40.848Z,100828.25
2022-12-15T09:08:50.234Z,100835.69
2022-12-15T09:11:55.140Z,100821.00
2022-12-15T09:14:59.799Z,100837.22
2022-12-15T09:18:04.740Z,100823.75
2022-12-15T09:21:09.149Z,100853.38
2022-12-15T09:24:23.213Z,100850.00
2022-12-15T09:27:35.114Z,100861.22
2022-12-15T09:30:39.757Z,100872.69
2022-12-15T09:33:45.358Z,100862.22
2022-12-15T09:36:49.794Z,100874.75
2022-12-15T09:39:54.067Z,100866.63
2022-12-15T09:43:25.620Z,100876.28
2022-12-15T09:46:29.224Z,100881.66
2022-12-15T09:49:58.090Z,100786.56
2022-12-15T09:53:13.317Z,100891.59
2022-12-15T09:56:56.483Z,100886.22
2022-12-15T10:00:26.277Z,100823.91
2022-12-15T10:03:56.388Z,100887.94
2022-12-15T10:07:23.603Z,100875.28
2022-12-15T10:11:02.701Z,100889.41
2022-12-15T10:14:31.321Z,100910.41
2022-12-15T10:18:23.296Z,100912.50
2022-12-15T10:21:30.286Z,100916.97
2022-12-15T10:28:17.229Z,100925.56
2022-12-15T10:32:08.330Z,100921.44
2022-12-15T10:35:32.358Z,100919.38
2022-12-15T10:38:39.577Z,100924.13
2022-12-15T10:41:44.952Z,100911.00
2022-12-15T10:44:54.995Z,100926.47
2022-12-15T10:48:00.410Z,100940.34
2022-12-15T10:51:49.140Z,100943.31
2022-12-15T10:54:56.531Z,100945.88
2022-12-15T10:58:03.688Z,100949.81
2022-12-15T11:01:18.676Z,100952.53
2022-12-15T11:04:34.679Z,100951.19
2022-12-15T11:07:43.384Z,100956.84
2022-12-15T11:11:14.913Z,100969.03
2022-12-15T11:14:28.185Z,100972.19
2022-12-15T11:17:43.139Z,100958.13
2022-12-15T11:21:22.490Z,100974.25
2022-12-15T11:25:08.169Z,100982.84
2022-12-15T11:28:26.602Z,100993.78
2022-12-15T11:31:40.663Z,101007.81
2022-12-15T11:34:48.416Z,101008.16
2022-12-15T11:38:31.084Z,101017.16
2022-12-15T11:41:58.322Z,101027.22
2022-12-15T11:45:27.824Z,101035.09
2022-12-15T11:48:59.287Z,101035.09
2022-12-15T11:52:16.744Z,101041.28
2022-12-15T11:55:51.613Z,101052.84
2022-12-15T11:59:32.088Z,101061.41
2022-12-15T12:03:04.169Z,101058.91
2022-12-15T12:06:21.383Z,101066.66
2022-12-15T12:09:28.783Z,101073.94
2022-12-15T12:12:46.621Z,101067.53
2022-12-15T12:16:31.855Z,101055.66
2022-12-15T12:19:50.648Z,101080.38
2022-12-15T12:22:58.444Z,101082.06
2022-12-15T12:26:13.427Z,101060.72
2022-12-15T12:29:24.893Z,101080.81
2022-12-15T12:32:36.103Z,101088.06
2022-12-15T12:35:52.247Z,101095.31
2022-12-15T12:38:57.961Z,101099.47
2022-12-15T12:42:14.213Z,101104.84
2022-12-15T12:45:20.798Z,101076.25
2022-12-15T12:49:00.036Z,101113.59
2022-12-15T12:52:58.815Z,101113.78
2022-12-15T12:56:03.951Z,101124.69
2022-12-15T12:59:30.234Z,101135.56
2022-12-15T13:02:40.459Z,101138.97
2022-12-15T13:05:50.380Z,101140.75
2022-12-15T13:08:56.716Z,101150.53
2022-12-15T13:12:20.815Z,101156.28
2022-12-15T13:15:32.108Z,101159.94
2022-12-15T13:19:10.644Z,101165.59
2022-12-15T13:22:44.639Z,101157.22
2022-12-15T13:25:59.457Z,101171.97
2022-12-15T13:29:04.047Z,101175.53
2022-12-15T13:32:35.864Z,101185.06
2022-12-15T13:35:43.493Z,101177.13
2022-12-15T13:38:57.693Z,101184.97
2022-12-15T13:42:32.764Z,101189.22
2022-12-15T13:45:50.224Z,101184.72
2022-12-15T13:49:11.209Z,101184.38
2022-12-15T13:52:44.314Z,101196.41
2022-12-15T13:56:36.800Z,101190.88
2022-12-15T13:59:51.966Z,101168.38
2022-12-15T14:03:14.533Z,101191.34
2022-12-15T14:06:19.127Z,101166.25
2022-12-15T14:09:35.108Z,101193.47
2022-12-15T14:12:41.651Z,101194.44
2022-12-15T14:15:50.773Z,101201.81
2022-12-15T14:19:14.821Z,101204.25
2022-12-15T14:22:29.700Z,101212.03
2022-12-15T14:25:34.757Z,101212.38
2022-12-15T14:28:45.177Z,101187.94
2022-12-15T14:31:56.045Z,101210.13
2022-12-15T14:35:00.416Z,101203.28
2022-12-15T14:38:09.717Z,101211.91
2022-12-15T14:41:38.981Z,101209.28
2022-12-15T14:44:49.931Z,101220.03
2022-12-15T14:51:47.655Z,101222.41
2022-12-15T14:54:58.086Z,101237.59
2022-12-15T14:58:15.188Z,101214.16
2022-12-15T15:01:30.908Z,101222.41
2022-12-15T15:04:35.858Z,101172.31
2022-12-15T15:07:41.599Z,101261.78
2022-12-15T15:10:46.238Z,101260.53
2022-12-15T15:13:56.101Z,101254.97
2022-12-15T15:17:05.684Z,101262.59
2022-12-15T15:20:30.369Z,101272.53
2022-12-15T15:23:35.292Z,101190.75
2022-12-15T15:26:41.815Z,101277.16
2022-12-15T15:29:46.343Z,101283.34
2022-12-15T15:32:52.958Z,101284.19
2022-12-15T15:35:59.637Z,101291.31
2022-12-15T15:39:11.560Z,101303.03
2022-12-15T15:42:16.256Z,101297.03
2022-12-15T15:45:20.980Z,101308.03
2022-12-15T15:48:31.581Z,101311.88
2022-12-15T15:51:38.631Z,101309.69
2022-12-15T15:54:43.627Z,101311.22
2022-12-15T15:57:48.160Z,101313.94
2022-12-15T16:00:54.412Z,101285.78
2022-12-15T16:03:59.376Z,101311.84
2022-12-15T16:07:05.431Z,101302.94
2022-12-15T16:10:19.402Z,101312.19
2022-12-15T16:13:26.233Z,101284.03
2022-12-15T16:16:34.529Z,101311.00
2022-12-15T16:19:39.921Z,101300.94
2022-12-15T16:23:04.801Z,101311.25
2022-12-15T16:26:18.789Z,101311.63
2022-12-15T16:29:23.404Z,101311.78
2022-12-15T16:32:27.944Z,101336.38
2022-12-15T16:35:32.424Z,101333.50
2022-12-15T16:38:38.911Z,101313.41
2022-12-15T16:41:43.298Z,101332.63
2022-12-15T16:44:47.772Z,101342.53
2022-12-15T16:47:52.868Z,101355.13
2022-12-15T16:51:00.136Z,101347.59
2022-12-15T16:54:05.092Z,101360.69
2022-12-15T16:57:13.121Z,101335.91
2022-12-15T17:00:24.034Z,101350.81
2022-12-15T17:03:28.705Z,101357.84
2022-12-15T17:06:33.110Z,101360.34
2022-12-15T17:09:38.898Z,101352.22
2022-12-15T17:12:43.936Z,101375.28
2022-12-15T17:15:49.042Z,101308.19
2022-12-15T17:18:53.953Z,101354.34
2022-12-15T17:21:59.029Z,101359.56
2022-12-15T17:25:03.459Z,101355.56
2022-12-15T17:28:15.146Z,101318.09
2022-12-15T17:31:21.812Z,101373.47
2022-12-15T17:34:35.308Z,101344.91
2022-12-15T17:37:41.711Z,101361.97
2022-12-15T17:40:47.720Z,101378.69
2022-12-15T17:44:09.815Z,101389.06
2022-12-15T17:47:18.113Z,101392.88
2022-12-15T17:50:22.748Z,101381.69
2022-12-15T17:53:31.605Z,101385.25
2022-12-15T17:56:36.216Z,101393.19
2022-12-15T17:59:40.663Z,101409.50
2022-12-15T18:02:45.919Z,101398.31
2022-12-15T18:05:54.048Z,101410.50
2022-12-15T18:08:58.525Z,101397.63
2022-12-15T18:12:03.273Z,101390.59
2022-12-15T18:15:26.150Z,101411.38
2022-12-15T18:18:30.646Z,101406.84
2022-12-15T18:21:35.686Z,101406.91
2022-12-15T18:24:40.045Z,101408.91
2022-12-15T18:27:45.457Z,101405.47
2022-12-15T18:30:52.166Z,101425.63
2022-12-15T18:34:04.531Z,101389.25
2022-12-15T18:37:20.597Z,101427.06
2022-12-15T18:40:28.868Z,101424.19
2022-12-15T18:43:35.638Z,101428.84
2022-12-15T18:46:44.645Z,101410.16
2022-12-15T18:49:52.529Z,101429.38
2022-12-15T18:53:02.729Z,101434.97
2022-12-15T18:56:09.682Z,101436.78
2022-12-15T18:59:16.467Z,101444.47
2022-12-15T19:02:21.013Z,101433.78
2022-12-15T19:05:33.407Z,101441.63
2022-12-15T19:08:40.121Z,101436.44
2022-12-15T19:12:16.645Z,101414.47
2022-12-15T19:15:22.996Z,101422.63
2022-12-15T19:18:46.551Z,101425.00
2022-12-15T19:21:59.620Z,101411.00
2022-12-15T19:25:08.634Z,101419.38
2022-12-15T19:28:20.498Z,101412.69
2022-12-15T19:31:25.135Z,101432.94
2022-12-15T19:34:29.492Z,101410.16
2022-12-15T19:37:36.039Z,101421.88
2022-12-15T19:40:41.802Z,101414.47
2022-12-15T19:43:46.409Z,101378.38
2022-12-15T19:46:50.985Z,101431.84
2022-12-15T19:49:55.413Z,101428.28
2022-12-15T19:53:02.805Z,101438.22
2022-12-15T19:56:08.072Z,101437.34
2022-12-15T19:59:26.937Z,101438.56
2022-12-15T20:02:31.904Z,101438.56
2022-12-15T20:05:37.515Z,101449.38
2022-12-15T20:08:44.196Z,101441.66
2022-12-15T20:11:48.731Z,101443.81
2022-12-15T20:14:53.387Z,101447.03
2022-12-15T20:17:58.160Z,101452.06
2022-12-15T20:21:02.653Z,101445.97
2022-12-15T20:24:10.533Z,101442.19
2022-12-15T20:27:17.779Z,101440.34
2022-12-15T20:30:26.309Z,101445.91
2022-12-15T20:33:31.261Z,101444.19
2022-12-15T20:36:37.368Z,101439.50
2022-12-15T20:39:41.721Z,101418.94
2022-12-15T20:42:46.139Z,101446.56
2022-12-15T20:45:59.310Z,101448.31
2022-12-15T20:49:05.414Z,101459.22
2022-12-15T20:52:19.811Z,101461.31
2022-12-15T20:55:24.683Z,101457.63
2022-12-15T20:58:33.107Z,101435.03
2022-12-15T21:01:42.353Z,101460.22
2022-12-15T21:04:47.152Z,101455.84
2022-12-15T21:07:51.275Z,101460.63
2022-12-15T21:11:00.995Z,101415.44
2022-12-15T21:14:05.414Z,101450.56
2022-12-15T21:17:18.674Z,101425.84
2022-12-15T21:20:23.222Z,101462.88
2022-12-15T21:23:32.714Z,101467.31
2022-12-15T21:26:37.236Z,101463.00
2022-12-15T21:29:43.307Z,101473.47
2022-12-15T21:32:51.930Z,101475.25
2022-12-15T21:35:56.372Z,101480.13
2022-12-15T21:39:00.973Z,101501.38
2022-12-15T21:42:07.184Z,101502.66
2022-12-15T21:45:20.696Z,101288.56
2022-12-15T21:48:43.203Z,101508.72
2022-12-15T21:51:56.777Z,101497.53
2022-12-15T21:55:01.245Z,101498.59
2022-12-15T21:58:19.722Z,101517.63
2022-12-15T22:01:29.378Z,101511.16
2022-12-15T22:04:36.264Z,101511.16
2022-12-15T22:07:40.534Z,101505.88
2022-12-15T22:10:46.482Z,101508.22
2022-12-15T22:13:53.166Z,101512.69
2022-12-15T22:17:01.456Z,101505.34
2022-12-15T22:20:23.478Z,101501.97
2022-12-15T22:23:27.828Z,101501.56
2022-12-15T22:26:33.196Z,101462.69
2022-12-15T22:29:38.786Z,101509.69
2022-12-15T22:32:43.314Z,101512.03
2022-12-15T22:35:47.888Z,101504.63
2022-12-15T22:38:52.407Z,101511.13
2022-12-15T22:41:56.833Z,101486.28
2022-12-15T22:45:01.217Z,101509.16
2022-12-15T22:48:07.662Z,101466.69
2022-12-15T22:51:14.720Z,101479.63
2022-12-15T22:54:20.906Z,101540.28
2022-12-15T22:57:28.080Z,101527.13
2022-12-15T23:00:32.735Z,101537.22
2022-12-15T23:03:37.371Z,101543.53
2022-12-15T23:06:42.373Z,101541.50
2022-12-15T23:09:47.005Z,101536.66
2022-12-15T23:12:55.194Z,101544.41
2022-12-15T23:16:18.355Z,101531.72
2022-12-15T23:19:25.819Z,101537.16
2022-12-15T23:22:30.240Z,101534.47
2022-12-15T23:25:35.017Z,101550.94
2022-12-15T23:28:39.678Z,101536.75
2022-12-15T23:31:44.264Z,101530.25
2022-12-15T23:34:48.721Z,101543.78
2022-12-15T23:37:53.305Z,101528.63
2022-12-15T23:40:59.385Z,101552.97
2022-12-15T23:44:03.733Z,101564.34
2022-12-15T23:47:08.976Z,101566.44
2022-12-15T23:50:13.937Z,101570.97
2022-12-15T23:53:18.445Z,101561.34
2022-12-15T23:56:26.186Z,101561.59
2022-12-15T23:59:30.479Z,101564.00
